createdAt,value
2018-04-18T00:01:55.420Z,84.20
2018-04-18T00:04:22.873Z,84.70
2018-04-18T00:06:50.642Z,85.00
2018-04-18T00:09:18.429Z,84.80
2018-04-18T00:11:45.893Z,84.90
2018-04-18T00:14:13.358Z,85.20
2018-04-18T00:16:40.884Z,85.40
2018-04-18T00:19:09.997Z,85.40
2018-04-18T00:21:38.090Z,85.60
2018-04-18T00:24:05.963Z,85.60
2018-04-18T00:26:33.415Z,85.50
2018-04-18T00:29:00.851Z,85.90
2018-04-18T00:31:28.324Z,86.00
2018-04-18T00:33:56.095Z,86.40
2018-04-18T00:36:23.515Z,86.50
2018-04-18T00:38:50.975Z,86.60
2018-04-18T00:41:18.421Z,86.60
2018-04-18T00:43:45.883Z,86.70
2018-04-18T00:46:13.349Z,86.70
2018-04-18T00:48:40.783Z,86.50
2018-04-18T00:51:08.248Z,86.50
2018-04-18T00:53:35.743Z,86.70
2018-04-18T00:56:03.146Z,86.70
2018-04-18T00:58:30.599Z,87.20
2018-04-18T01:00:58.057Z,87.30
2018-04-18T01:03:25.519Z,87.30
2018-04-18T01:05:52.983Z,87.40
2018-04-18T01:08:20.453Z,87.50
2018-04-18T01:10:47.917Z,87.80
2018-04-18T01:13:17.119Z,88.30
2018-04-18T01:15:44.786Z,88.50
2018-04-18T01:18:12.203Z,88.80
2018-04-18T01:20:39.640Z,89.00
2018-04-18T01:23:07.100Z,89.10
2018-04-18T01:25:34.543Z,89.10
2018-04-18T01:28:02.019Z,89.40
2018-04-18T01:30:29.458Z,89.40
2018-04-18T01:32:56.908Z,89.70
2018-04-18T01:35:24.591Z,90.00
2018-04-18T01:37:54.673Z,90.10
2018-04-18T01:40:22.128Z,90.10
2018-04-18T01:42:49.589Z,90.30
2018-04-18T01:45:17.049Z,90.40
2018-04-18T01:47:44.560Z,90.50
2018-04-18T01:50:12.396Z,90.50
2018-04-18T01:52:40.607Z,90.80
2018-04-18T01:55:08.043Z,90.70
2018-04-18T01:57:35.496Z,90.90
2018-04-18T02:00:02.943Z,90.90
2018-04-18T02:02:30.709Z,91.00
2018-04-18T02:04:58.180Z,91.20
2018-04-18T02:07:25.627Z,91.50
2018-04-18T02:09:53.083Z,91.60
2018-04-18T02:12:20.539Z,91.60
2018-04-18T02:14:47.977Z,91.80
2018-04-18T02:17:15.436Z,92.00
2018-04-18T02:19:42.879Z,92.20
2018-04-18T02:22:10.329Z,92.30
2018-04-18T02:24:37.788Z,92.40
2018-04-18T02:27:05.228Z,92.40
2018-04-18T02:29:32.679Z,92.50
2018-04-18T02:32:00.133Z,92.60
2018-04-18T02:34:27.593Z,92.50
2018-04-18T02:36:55.049Z,92.70
2018-04-18T02:39:22.502Z,92.40
2018-04-18T02:41:49.982Z,92.40
2018-04-18T02:44:17.420Z,92.30
2018-04-18T02:46:44.860Z,92.50
2018-04-18T02:49:12.333Z,92.50
2018-04-18T02:51:39.797Z,92.50
2018-04-18T02:54:07.246Z,92.60
2018-04-18T02:56:34.688Z,92.70
2018-04-18T02:59:02.432Z,93.00
2018-04-18T03:01:32.293Z,93.10
2018-04-18T03:06:32.853Z,93.50
2018-04-18T03:09:00.309Z,93.70
2018-04-18T03:11:27.766Z,93.80
2018-04-18T03:13:55.237Z,93.80
2018-04-18T03:16:22.668Z,93.80
2018-04-18T03:18:50.128Z,93.80
2018-04-18T03:21:17.595Z,94.00
2018-04-18T03:23:45.032Z,93.90
2018-04-18T03:26:12.567Z,94.00
2018-04-18T03:28:40.009Z,94.00
2018-04-18T03:31:07.464Z,94.00
2018-04-18T03:33:34.926Z,94.00
2018-04-18T03:36:02.379Z,94.10
2018-04-18T03:38:29.836Z,94.20
2018-04-18T03:40:57.285Z,94.10
2018-04-18T03:43:24.738Z,94.20
2018-04-18T03:45:52.191Z,94.20
2018-04-18T03:48:20.396Z,94.00
2018-04-18T03:50:47.848Z,94.00
2018-04-18T03:53:15.286Z,94.00
2018-04-18T03:55:42.744Z,94.00
2018-04-18T03:58:10.188Z,94.20
2018-04-18T04:00:38.047Z,94.40
2018-04-18T04:03:05.530Z,94.60
2018-04-18T04:05:33.728Z,94.60
2018-04-18T04:08:01.954Z,94.80
2018-04-18T04:10:29.415Z,94.40
2018-04-18T04:12:56.884Z,94.40
2018-04-18T04:15:24.340Z,94.30
2018-04-18T04:18:03.612Z,94.30
2018-04-18T04:20:42.867Z,94.30
2018-04-18T04:23:22.075Z,94.30
2018-04-18T04:25:49.531Z,94.40
2018-04-18T04:28:16.978Z,94.70
2018-04-18T04:30:44.424Z,95.00
2018-04-18T04:33:11.878Z,95.00
2018-04-18T04:35:39.335Z,95.00
2018-04-18T04:38:07.659Z,95.10
2018-04-18T04:40:35.111Z,95.00
2018-04-18T04:43:02.556Z,94.90
2018-04-18T04:45:30.017Z,94.90
2018-04-18T04:47:57.451Z,94.90
2018-04-18T04:50:24.904Z,94.80
2018-04-18T04:52:52.346Z,94.80
2018-04-18T04:55:20.556Z,94.80
2018-04-18T04:57:48.015Z,94.70
2018-04-18T05:00:15.462Z,94.80
2018-04-18T05:02:43.027Z,94.80
2018-04-18T05:05:10.480Z,94.70
2018-04-18T05:07:38.697Z,94.70
2018-04-18T05:10:06.169Z,94.60
2018-04-18T05:12:33.612Z,94.70
2018-04-18T05:15:01.076Z,94.70
2018-04-18T05:17:28.511Z,94.90
2018-04-18T05:19:55.963Z,95.00
2018-04-18T05:22:23.463Z,95.00
2018-04-18T05:24:50.974Z,95.10
2018-04-18T05:27:18.434Z,95.10
2018-04-18T05:29:45.888Z,95.20
2018-04-18T05:35:11.356Z,95.20
2018-04-18T05:37:39.206Z,95.10
2018-04-18T05:40:06.647Z,95.10
2018-04-18T05:42:34.113Z,95.20
2018-04-18T05:45:01.556Z,95.20
2018-04-18T05:47:29.323Z,95.10
2018-04-18T05:49:56.773Z,95.10
2018-04-18T05:52:24.245Z,95.10
2018-04-18T05:54:51.697Z,95.10
2018-04-18T05:57:19.149Z,95.20
2018-04-18T05:59:46.597Z,95.10
2018-04-18T06:02:14.057Z,95.10
2018-04-18T06:04:41.542Z,94.90
2018-04-18T06:07:08.980Z,95.00
2018-04-18T06:09:36.435Z,95.00
2018-04-18T06:12:03.884Z,95.00
2018-04-18T06:14:31.332Z,94.80
2018-04-18T06:16:58.786Z,94.80
2018-04-18T06:19:26.241Z,94.90
2018-04-18T06:21:53.681Z,94.90
2018-04-18T06:24:21.135Z,94.90
2018-04-18T06:26:48.588Z,94.80
2018-04-18T06:29:16.187Z,94.70
2018-04-18T06:31:43.662Z,94.70
2018-04-18T06:34:11.123Z,94.70
2018-04-18T06:36:38.808Z,94.60
2018-04-18T06:39:06.255Z,94.60
2018-04-18T06:41:33.713Z,94.60
2018-04-18T06:44:01.170Z,94.50
2018-04-18T06:46:28.616Z,94.40
2018-04-18T06:48:56.069Z,94.20
2018-04-18T06:51:23.521Z,94.00
2018-04-18T06:53:50.955Z,93.90
2018-04-18T06:56:19.291Z,93.50
2018-04-18T06:58:46.739Z,93.40
2018-04-18T07:01:14.199Z,93.30
2018-04-18T07:03:41.645Z,93.30
2018-04-18T07:06:09.086Z,93.20
2018-04-18T07:08:36.655Z,92.90
2018-04-18T07:11:04.108Z,92.80
2018-04-18T07:13:31.553Z,92.60
2018-04-18T07:15:58.999Z,92.40
2018-04-18T07:18:27.222Z,92.10
2018-04-18T07:20:54.787Z,92.00
2018-04-18T07:23:22.216Z,91.90
2018-04-18T07:25:50.034Z,91.70
2018-04-18T07:28:17.499Z,91.70
2018-04-18T07:30:44.955Z,91.50
2018-04-18T07:33:12.417Z,91.40
2018-04-18T07:35:39.948Z,91.40
2018-04-18T07:38:07.395Z,91.20
2018-04-18T07:40:34.853Z,91.20
2018-04-18T07:43:02.288Z,91.20
2018-04-18T07:45:29.748Z,91.20
2018-04-18T07:47:57.195Z,91.20
2018-04-18T07:50:24.837Z,90.90
2018-04-18T07:52:52.291Z,90.70
2018-04-18T07:55:19.738Z,90.30
2018-04-18T07:57:47.187Z,89.40
2018-04-18T08:00:14.636Z,88.50
2018-04-18T08:02:42.145Z,86.90
2018-04-18T08:05:09.613Z,86.10
2018-04-18T08:07:37.097Z,84.60
2018-04-18T08:10:04.555Z,83.50
2018-04-18T08:12:32.037Z,82.90
2018-04-18T08:14:59.476Z,82.20
2018-04-18T08:17:26.929Z,81.40
2018-04-18T08:19:54.386Z,81.00
2018-04-18T08:22:21.837Z,81.20
2018-04-18T08:24:49.280Z,79.90
2018-04-18T08:27:16.728Z,78.30
2018-04-18T08:29:44.165Z,77.20
2018-04-18T08:32:11.629Z,76.70
2018-04-18T08:34:39.292Z,74.90
2018-04-18T08:37:06.741Z,73.80
2018-04-18T08:39:34.203Z,71.10
2018-04-18T08:42:01.657Z,69.20
2018-04-18T08:44:29.096Z,63.90
2018-04-18T08:46:56.548Z,62.10
2018-04-18T08:49:24.012Z,58.90
2018-04-18T08:51:51.708Z,57.00
2018-04-18T08:54:19.157Z,54.80
2018-04-18T08:56:46.601Z,52.70
2018-04-18T08:59:14.059Z,50.50
2018-04-18T09:01:41.540Z,47.50
2018-04-18T09:04:08.982Z,45.90
2018-04-18T09:06:36.427Z,44.20
2018-04-18T09:09:03.869Z,43.80
2018-04-18T09:11:31.346Z,42.00
2018-04-18T09:13:58.785Z,40.50
2018-04-18T09:16:26.218Z,39.80
2018-04-18T09:18:53.763Z,38.60
2018-04-18T09:21:21.215Z,38.30
2018-04-18T09:23:48.664Z,37.90
2018-04-18T09:26:16.100Z,36.60
2018-04-18T09:28:43.620Z,35.30
2018-04-18T09:31:11.089Z,34.70
2018-04-18T09:33:38.524Z,34.80
2018-04-18T09:36:06.030Z,35.00
2018-04-18T09:38:34.227Z,32.00
2018-04-18T09:41:02.431Z,32.50
2018-04-18T09:43:29.883Z,32.40
2018-04-18T09:45:57.325Z,33.80
2018-04-18T09:48:24.792Z,34.10
2018-04-18T09:50:52.609Z,33.50
2018-04-18T09:53:20.040Z,32.60
2018-04-18T09:55:47.478Z,32.80
2018-04-18T09:58:15.132Z,32.10
2018-04-18T10:00:48.274Z,30.70
2018-04-18T10:03:16.059Z,31.60
2018-04-18T10:05:43.749Z,30.20
2018-04-18T10:08:13.808Z,30.30
2018-04-18T10:10:41.231Z,30.70
2018-04-18T10:13:08.687Z,29.10
2018-04-18T10:15:36.139Z,29.80
2018-04-18T10:18:03.575Z,29.80
2018-04-18T10:20:31.028Z,29.90
2018-04-18T10:22:58.589Z,30.00
2018-04-18T10:25:26.004Z,31.30
2018-04-18T10:27:53.511Z,30.20
2018-04-18T10:30:20.949Z,29.50
2018-04-18T10:32:48.399Z,29.10
2018-04-18T10:35:16.240Z,28.20
2018-04-18T10:37:43.687Z,28.40
2018-04-18T10:40:11.143Z,28.70
2018-04-18T10:42:39.029Z,27.10
2018-04-18T10:45:06.473Z,26.60
2018-04-18T10:47:33.917Z,26.90
2018-04-18T10:50:01.362Z,26.40
2018-04-18T10:52:29.007Z,26.60
2018-04-18T10:54:56.451Z,26.30
2018-04-18T10:57:23.919Z,26.80
2018-04-18T10:59:51.359Z,26.50
2018-04-18T11:02:18.832Z,25.50
2018-04-18T11:04:46.275Z,25.30
2018-04-18T11:07:13.707Z,24.80
2018-04-18T11:09:41.160Z,25.00
2018-04-18T11:12:08.599Z,24.90
2018-04-18T11:14:36.435Z,24.30
2018-04-18T11:17:03.880Z,24.80
2018-04-18T11:19:31.325Z,24.60
2018-04-18T11:21:58.802Z,24.20
2018-04-18T11:24:26.244Z,24.00
2018-04-18T11:26:53.828Z,24.40
2018-04-18T11:29:21.990Z,23.00
2018-04-18T11:31:49.430Z,22.90
2018-04-18T11:34:17.069Z,23.90
2018-04-18T11:36:44.508Z,23.10
2018-04-18T11:39:11.956Z,23.80
2018-04-18T11:41:39.436Z,23.40
2018-04-18T11:44:06.906Z,22.80
2018-04-18T11:46:34.355Z,22.90
2018-04-18T11:49:02.372Z,23.00
2018-04-18T11:51:29.885Z,23.10
2018-04-18T11:53:57.348Z,22.40
2018-04-18T11:56:24.787Z,22.40
2018-04-18T11:58:52.238Z,22.50
2018-04-18T12:01:20.454Z,21.90
2018-04-18T12:03:47.908Z,21.90
2018-04-18T12:06:15.377Z,22.30
2018-04-18T12:08:42.806Z,22.40
2018-04-18T12:11:10.252Z,22.00
2018-04-18T12:13:37.954Z,21.50
2018-04-18T12:16:05.393Z,20.70
2018-04-18T12:18:32.851Z,20.70
2018-04-18T12:21:00.287Z,21.30
2018-04-18T12:23:27.759Z,21.40
2018-04-18T12:25:55.963Z,22.00
2018-04-18T12:28:23.403Z,21.90
2018-04-18T12:30:50.853Z,21.70
2018-04-18T12:33:18.303Z,21.40
2018-04-18T12:35:45.754Z,20.60
2018-04-18T12:38:13.195Z,20.30
2018-04-18T12:40:40.654Z,19.80
2018-04-18T12:43:08.093Z,20.80
2018-04-18T12:45:35.603Z,21.40
2018-04-18T12:48:03.147Z,21.30
2018-04-18T12:50:30.601Z,20.50
2018-04-18T12:52:58.056Z,20.80
2018-04-18T12:55:25.499Z,20.90
2018-04-18T12:57:52.944Z,20.50
2018-04-18T13:00:20.400Z,20.90
2018-04-18T13:02:48.614Z,19.60
2018-04-18T13:05:16.051Z,19.60
2018-04-18T13:07:43.788Z,20.10
2018-04-18T13:10:11.223Z,21.10
2018-04-18T13:12:38.717Z,21.10
2018-04-18T13:15:06.161Z,20.60
2018-04-18T13:17:33.648Z,20.40
2018-04-18T13:20:01.091Z,19.80
2018-04-18T13:22:28.519Z,20.40
2018-04-18T13:24:55.981Z,20.10
2018-04-18T13:27:23.423Z,19.70
2018-04-18T13:29:50.868Z,18.90
2018-04-18T13:32:19.081Z,19.60
2018-04-18T13:34:46.512Z,19.60
2018-04-18T13:37:14.329Z,19.30
2018-04-18T13:39:41.765Z,19.60
2018-04-18T13:42:09.201Z,19.20
2018-04-18T13:44:36.665Z,19.60
2018-04-18T13:47:04.101Z,19.90
2018-04-18T13:49:31.721Z,19.60
2018-04-18T13:51:59.152Z,20.30
2018-04-18T13:54:26.600Z,20.50
2018-04-18T13:56:54.814Z,21.00
2018-04-18T13:59:22.255Z,20.90
2018-04-18T14:01:49.741Z,20.70
2018-04-18T14:04:20.344Z,20.60
2018-04-18T14:06:48.531Z,21.50
2018-04-18T14:09:15.981Z,21.40
2018-04-18T14:11:44.397Z,21.80
2018-04-18T14:14:11.841Z,21.80
2018-04-18T14:16:39.280Z,21.50
2018-04-18T14:19:07.749Z,21.80
2018-04-18T14:21:35.217Z,21.70
2018-04-18T14:24:02.652Z,22.20
2018-04-18T14:26:30.368Z,22.60
2018-04-18T14:28:57.797Z,23.10
2018-04-18T14:31:25.251Z,22.70
2018-04-18T14:33:52.700Z,22.90
2018-04-18T14:36:20.139Z,22.70
2018-04-18T14:38:47.638Z,22.80
2018-04-18T14:41:15.088Z,22.30
2018-04-18T14:43:42.756Z,23.00
2018-04-18T14:46:10.204Z,22.60
2018-04-18T14:48:37.686Z,22.80
2018-04-18T14:51:05.133Z,22.60
2018-04-18T14:53:32.584Z,23.40
2018-04-18T14:56:00.031Z,23.50
2018-04-18T14:58:27.876Z,23.30
2018-04-18T15:00:56.219Z,23.60
2018-04-18T15:03:23.664Z,23.70
2018-04-18T15:05:51.096Z,24.50
2018-04-18T15:08:18.604Z,24.10
2018-04-18T15:10:46.114Z,23.70
2018-04-18T15:13:13.511Z,24.10
2018-04-18T15:15:40.955Z,24.30
2018-04-18T15:18:08.417Z,24.30
2018-04-18T15:20:35.835Z,24.50
2018-04-18T15:23:04.068Z,25.10
2018-04-18T15:25:31.848Z,24.60
2018-04-18T15:27:59.339Z,24.70
2018-04-18T15:30:26.768Z,24.20
2018-04-18T15:32:54.215Z,24.40
2018-04-18T15:35:21.664Z,24.20
2018-04-18T15:37:49.555Z,24.60
2018-04-18T15:40:17.378Z,25.00
2018-04-18T15:42:44.878Z,25.40
2018-04-18T15:45:12.576Z,25.40
2018-04-18T15:47:40.030Z,25.90
2018-04-18T15:50:07.791Z,25.20
2018-04-18T15:52:35.242Z,25.60
2018-04-18T15:55:02.682Z,25.90
2018-04-18T15:57:30.401Z,26.20
2018-04-18T15:59:57.964Z,26.50
2018-04-18T16:02:25.824Z,27.00
2018-04-18T16:04:53.280Z,27.40
2018-04-18T16:07:20.723Z,27.70
2018-04-18T16:09:48.174Z,28.00
2018-04-18T16:12:15.716Z,28.30
2018-04-18T16:14:43.160Z,29.20
2018-04-18T16:17:10.720Z,29.20
2018-04-18T16:19:38.152Z,29.30
2018-04-18T16:22:05.594Z,29.80
2018-04-18T16:24:33.960Z,29.90
2018-04-18T16:27:01.464Z,29.90
2018-04-18T16:29:40.616Z,30.20
2018-04-18T16:32:08.051Z,29.80
2018-04-18T16:34:35.496Z,30.00
2018-04-18T16:37:02.946Z,30.40
2018-04-18T16:39:30.379Z,30.20
2018-04-18T16:41:58.608Z,30.00
2018-04-18T16:44:26.814Z,29.90
2018-04-18T16:46:54.258Z,29.80
2018-04-18T16:49:21.702Z,30.20
2018-04-18T16:51:49.149Z,30.60
2018-04-18T16:54:16.668Z,30.90
2018-04-18T16:56:44.171Z,30.00
2018-04-18T16:59:11.938Z,29.90
2018-04-18T17:01:39.717Z,30.20
2018-04-18T17:04:07.871Z,30.40
2018-04-18T17:06:35.483Z,30.40
2018-04-18T17:09:02.906Z,30.70
2018-04-18T17:11:31.132Z,31.00
2018-04-18T17:13:58.687Z,31.00
2018-04-18T17:16:26.153Z,30.90
2018-04-18T17:18:53.605Z,31.30
2018-04-18T17:21:21.052Z,31.00
2018-04-18T17:23:48.792Z,31.20
2018-04-18T17:26:17.030Z,31.60
2018-04-18T17:28:44.468Z,31.60
2018-04-18T17:31:11.951Z,32.00
2018-04-18T17:33:39.407Z,32.20
2018-04-18T17:36:07.382Z,32.50
2018-04-18T17:38:34.830Z,33.00
2018-04-18T17:41:02.360Z,33.30
2018-04-18T17:43:29.732Z,33.90
2018-04-18T17:45:57.173Z,34.20
2018-04-18T17:48:24.774Z,34.40
2018-04-18T17:50:52.467Z,34.80
2018-04-18T17:53:19.900Z,34.80
2018-04-18T17:55:47.351Z,35.10
2018-04-18T17:58:14.787Z,35.30
2018-04-18T18:00:42.224Z,35.50
2018-04-18T18:03:10.082Z,35.90
2018-04-18T18:05:37.511Z,36.00
2018-04-18T18:08:04.952Z,36.20
2018-04-18T18:10:32.598Z,36.40
2018-04-18T18:13:00.057Z,36.60
2018-04-18T18:15:27.483Z,36.90
2018-04-18T18:17:54.931Z,37.10
2018-04-18T18:20:22.383Z,37.40
2018-04-18T18:22:49.835Z,37.90
2018-04-18T18:25:17.340Z,38.20
2018-04-18T18:27:44.728Z,38.60
2018-04-18T18:30:12.184Z,39.10
2018-04-18T18:32:39.624Z,39.50
2018-04-18T18:35:07.072Z,39.70
2018-04-18T18:37:34.501Z,40.80
2018-04-18T18:40:01.933Z,40.20
2018-04-18T18:42:29.386Z,40.40
2018-04-18T18:44:56.829Z,40.90
2018-04-18T18:47:24.298Z,41.10
2018-04-18T18:49:51.802Z,41.10
2018-04-18T18:52:19.172Z,41.30
2018-04-18T18:54:46.623Z,41.30
2018-04-18T18:57:15.040Z,41.40
2018-04-18T18:59:42.704Z,41.60
2018-04-18T19:02:10.146Z,41.90
2018-04-18T19:04:38.048Z,42.20
2018-04-18T19:07:05.492Z,42.80
2018-04-18T19:09:32.938Z,43.00
2018-04-18T19:12:00.463Z,43.10
2018-04-18T19:14:27.908Z,43.30
2018-04-18T19:16:55.352Z,43.60
2018-04-18T19:19:22.797Z,43.70
2018-04-18T19:21:50.236Z,43.80
2018-04-18T19:24:17.701Z,43.80
2018-04-18T19:26:49.459Z,43.90
2018-04-18T19:29:17.671Z,44.20
2018-04-18T19:31:45.461Z,44.20
2018-04-18T19:34:13.659Z,44.40
2018-04-18T19:36:41.116Z,44.40
2018-04-18T19:39:08.563Z,45.40
2018-04-18T19:41:36.043Z,44.70
2018-04-18T19:44:03.694Z,44.80
2018-04-18T19:46:31.141Z,45.00
2018-04-18T19:48:59.633Z,45.10
2018-04-18T19:51:27.314Z,45.20
2018-04-18T19:53:54.847Z,45.30
2018-04-18T19:56:22.298Z,45.30
2018-04-18T19:58:50.083Z,45.30
2018-04-18T20:01:17.563Z,45.30
2018-04-18T20:03:45.089Z,45.40
2018-04-18T20:06:13.516Z,45.60
2018-04-18T20:08:40.951Z,45.70
2018-04-18T20:11:08.464Z,45.90
2018-04-18T20:13:35.848Z,46.00
2018-04-18T20:16:03.283Z,46.20
2018-04-18T20:18:31.314Z,46.30
2018-04-18T20:20:59.048Z,47.10
2018-04-18T20:23:26.556Z,46.60
2018-04-18T20:25:54.020Z,46.70
2018-04-18T20:28:21.516Z,47.40
2018-04-18T20:30:49.073Z,46.80
2018-04-18T20:33:16.526Z,46.90
2018-04-18T20:35:43.967Z,46.90
2018-04-18T20:38:11.437Z,46.80
2018-04-18T20:40:38.880Z,46.90
2018-04-18T20:43:06.316Z,46.90
2018-04-18T20:45:33.764Z,46.90
2018-04-18T20:48:01.221Z,46.80
2018-04-18T20:50:28.844Z,46.90
2018-04-18T20:52:56.327Z,46.90
2018-04-18T20:55:23.797Z,46.80
2018-04-18T20:57:51.223Z,46.80
2018-04-18T21:00:18.691Z,46.90
2018-04-18T21:02:46.139Z,47.10
2018-04-18T21:05:13.616Z,47.10
2018-04-18T21:07:41.062Z,47.20
2018-04-18T21:10:08.742Z,47.30
2018-04-18T21:12:36.195Z,47.40
2018-04-18T21:15:03.659Z,47.50
2018-04-18T21:17:31.120Z,47.70
2018-04-18T21:19:58.604Z,47.80
2018-04-18T21:22:26.054Z,47.80
2018-04-18T21:24:53.520Z,47.90
2018-04-18T21:27:20.958Z,47.90
2018-04-18T21:29:48.387Z,48.00
2018-04-18T21:32:15.834Z,48.00
2018-04-18T21:34:43.613Z,48.10
2018-04-18T21:37:11.071Z,48.10
2018-04-18T21:39:38.667Z,48.10
2018-04-18T21:42:06.120Z,48.10
2018-04-18T21:44:33.575Z,47.90
2018-04-18T21:47:01.160Z,47.90
2018-04-18T21:49:29.042Z,47.80
2018-04-18T21:51:56.541Z,47.60
2018-04-18T21:54:23.972Z,47.50
2018-04-18T21:56:51.426Z,47.50
2018-04-18T21:59:18.896Z,47.40
2018-04-18T22:01:46.343Z,47.40
2018-04-18T22:04:13.781Z,47.50
2018-04-18T22:06:41.223Z,47.50
2018-04-18T22:09:08.667Z,47.70
2018-04-18T22:11:36.124Z,47.70
2018-04-18T22:14:03.659Z,47.70
2018-04-18T22:16:31.517Z,47.70
2018-04-18T22:19:00.389Z,47.80
2018-04-18T22:21:28.174Z,48.00
2018-04-18T22:23:56.046Z,48.30
2018-04-18T22:26:23.500Z,48.60
2018-04-18T22:28:51.052Z,48.60
2018-04-18T22:31:19.042Z,48.60
2018-04-18T22:33:46.495Z,48.70
2018-04-18T22:36:13.928Z,48.70
2018-04-18T22:38:41.379Z,48.90
2018-04-18T22:41:09.593Z,49.50
2018-04-18T22:43:37.054Z,49.30
2018-04-18T22:46:04.504Z,49.90
2018-04-18T22:48:31.944Z,50.20
2018-04-18T22:51:00.164Z,50.40
2018-04-18T22:53:27.625Z,50.30
2018-04-18T22:55:55.080Z,50.60
2018-04-18T22:58:22.540Z,50.80
2018-04-18T23:00:49.979Z,50.80
2018-04-18T23:03:17.434Z,50.80
2018-04-18T23:05:45.048Z,50.90
2018-04-18T23:08:12.491Z,51.10
2018-04-18T23:10:39.935Z,51.10
2018-04-18T23:13:07.383Z,51.20
2018-04-18T23:15:35.200Z,51.20
2018-04-18T23:18:02.664Z,51.30
2018-04-18T23:20:30.339Z,51.30
2018-04-18T23:22:57.823Z,51.40
2018-04-18T23:25:28.929Z,51.60
2018-04-18T23:27:56.361Z,51.70
2018-04-18T23:30:24.088Z,51.80
2018-04-18T23:32:51.569Z,52.00
2018-04-18T23:35:19.025Z,52.20
2018-04-18T23:37:47.631Z,52.60
2018-04-18T23:40:15.060Z,52.60
2018-04-18T23:42:42.584Z,52.80
2018-04-18T23:45:09.960Z,53.00
2018-04-18T23:47:37.411Z,53.10
2018-04-18T23:50:04.859Z,53.40
2018-04-18T23:52:32.315Z,53.60
2018-04-18T23:55:00.117Z,53.80
2018-04-18T23:57:27.596Z,54.00
2018-04-18T23:59:55.049Z,54.20
